This is the latest recevied weather packets stored in our database for station/object SP6DW-13. If no packets are shown the sender has not sent any weather packets the latest 10 day(s).
| Time | Temp. | Humidity | Pressure | Rain* | Wind** | Luminosity | Snow |
|---|---|---|---|---|---|---|---|
| 1777002316 | 5.56° C | 85% | 1020.2 hPa | 0 mm | - | - | - |
| 1776999316 | 5.56° C | 84% | 1020.3 hPa | 0 mm | - | - | - |
| 1776998716 | 6.11° C | 83% | 1020.3 hPa | 0 mm | - | - | - |
| 1776990328 | 5° C | 82% | 1020.5 hPa | 0 mm | - | - | - |
| 1776984319 | 6.11° C | 77% | 1021.4 hPa | 0 mm | - | - | - |
| 1776983116 | 6.67° C | 77% | 1021.5 hPa | 0 mm | - | - | - |
| 1776977116 | 10° C | 65% | 1021.6 hPa | 0 mm | - | - | - |
| 1776976525 | 10° C | 65% | 1021.7 hPa | 0 mm | - | - | - |
| 1776973518 | 10.56° C | 61% | 1021.6 hPa | 0 mm | - | - | - |
| 1776969916 | 12.22° C | 53% | 1021.6 hPa | 0 mm | - | - | - |
| 1776968126 | 13.33° C | 49% | 1021.3 hPa | 0 mm | - | - | - |
| 1776965116 | 15° C | 45% | 1021.1 hPa | 0 mm | - | - | - |
| 1776952549 | 16.11° C | 41% | 1021.6 hPa | 0 mm | - | - | - |
| 1776948916 | 15.56° C | 43% | 1022.3 hPa | 0 mm | - | - | - |
| 1776948316 | 15° C | 43% | 1022.4 hPa | 0 mm | - | - | - |
| 1776946536 | 15° C | 43% | 1022.6 hPa | 0 mm | - | - | - |
| 1776943519 | 15° C | 40% | 1022.9 hPa | 0 mm | - | - | - |
| 1776940568 | 13.33° C | 38% | 1022.9 hPa | 0 mm | - | - | - |
| 1776939916 | 13.89° C | 39% | 1023.1 hPa | 0 mm | - | - | - |
| 1776939024 | 13.33° C | 38% | 1023.2 hPa | 0 mm | - | - | - |
| 1776937219 | 12.78° C | 38% | 1023.5 hPa | 0 mm | - | - | - |
| 1776935424 | 12.22° C | 37% | 1023.8 hPa | 0 mm | - | - | - |
| 1776932428 | 11.11° C | 39% | 1023.9 hPa | 0 mm | - | - | - |
| 1776930016 | 11.11° C | 38% | 1024.1 hPa | 0 mm | - | - | - |
| 1776925839 | 8.33° C | 62% | 1023.9 hPa | 0 mm | - | - | - |
* Rain latest hour (hover to see other rain measurements)
** Current wind speed in m/s (hover to see current wind gust speed)